Time;durP1;ratioP1;P1;durP2;ratioP2;P2;SDS_P1;SDS_P2;PMS_P1;PMS_P2;Temp;Humidity;BMP_temperature;BMP_pressure;BME280_temperature;BME280_humidity;BME280_pressure;Samples;Min_cycle;Max_cycle;Signal;HPM_P1;HPM_P2
2021/08/15 00:00:17;;;;;;;12.15;8.90;;;;;;;23.01;65.59;99919.00;1626390;54;20137;-79
2021/08/15 00:01:52;;;;;;;13.07;10.43;;;;;;;22.93;65.84;99924.75;1624928;47;20161;-80
2021/08/15 00:03:25;;;;;;;15.23;10.35;;;;;;;22.76;66.40;99922.69;1626108;47;20038;-80
2021/08/15 00:05:03;;;;;;;14.38;10.90;;;;;;;22.65;66.82;99923.44;1625678;54;20130;-79
2021/08/15 00:06:36;;;;;;;13.35;11.00;;;;;;;22.56;67.34;99917.44;1625789;54;20042;-80
2021/08/15 00:08:10;;;;;;;19.00;12.35;;;;;;;22.50;67.60;99912.91;1626422;54;20042;-80
2021/08/15 00:09:43;;;;;;;15.60;11.63;;;;;;;22.44;67.92;99915.47;1625293;47;20045;-80
2021/08/15 00:11:17;;;;;;;13.88;10.52;;;;;;;22.37;68.03;99914.69;1626245;47;20680;-80
2021/08/15 00:12:52;;;;;;;15.50;11.57;;;;;;;22.31;68.24;99909.31;1625850;54;20152;-78
2021/08/15 00:14:25;;;;;;;15.82;11.27;;;;;;;22.26;68.48;99907.25;1626392;47;20094;-80
2021/08/15 00:15:59;;;;;;;17.00;11.43;;;;;;;22.24;68.54;99909.41;1629295;54;20098;-80
2021/08/15 00:17:32;;;;;;;16.67;12.45;;;;;;;22.19;68.83;99906.50;1629035;54;20038;-79
2021/08/15 00:19:07;;;;;;;16.58;11.25;;;;;;;22.11;69.04;99907.63;1629428;54;20130;-79
2021/08/15 00:20:44;;;;;;;15.98;11.43;;;;;;;22.06;69.34;99902.03;1628999;47;20067;-79
2021/08/15 00:22:17;;;;;;;16.42;11.75;;;;;;;22.01;69.72;99907.31;1628979;54;20038;-79
2021/08/15 00:23:51;;;;;;;16.65;11.82;;;;;;;22.00;69.62;99911.91;1629442;47;20030;-79
2021/08/15 00:25:24;;;;;;;14.25;11.05;;;;;;;22.02;69.79;99911.69;1626629;54;20042;-78
2021/08/15 00:26:58;;;;;;;13.70;11.23;;;;;;;22.05;69.33;99898.47;1626164;47;20971;-79
2021/08/15 00:28:32;;;;;;;14.02;10.73;;;;;;;22.08;69.48;99900.75;1626410;54;20604;-80
2021/08/15 00:30:07;;;;;;;12.48;10.18;;;;;;;22.12;69.47;99896.53;1625328;47;20060;-80
2021/08/15 00:31:40;;;;;;;14.45;11.15;;;;;;;22.15;69.01;99895.22;1625077;47;20034;-80
2021/08/15 00:33:14;;;;;;;13.43;9.73;;;;;;;22.12;69.22;99890.22;1625458;54;20086;-80
2021/08/15 00:34:47;;;;;;;15.48;10.88;;;;;;;22.15;69.36;99889.78;1625045;47;20048;-80
2021/08/15 00:36:23;;;;;;;15.30;11.40;;;;;;;22.18;69.38;99888.50;1625684;54;20064;-80
2021/08/15 00:37:57;;;;;;;14.38;10.82;;;;;;;22.15;69.27;99889.78;1624711;47;20041;-79
2021/08/15 00:39:32;;;;;;;12.27;10.35;;;;;;;22.13;69.44;99889.19;1626200;54;20030;-79
2021/08/15 00:41:05;;;;;;;11.40;10.18;;;;;;;22.17;69.36;99884.97;1625567;47;20098;-80
2021/08/15 00:42:39;;;;;;;15.77;11.38;;;;;;;22.15;69.50;99889.78;1626395;39;20453;-80
2021/08/15 00:44:13;;;;;;;14.07;9.98;;;;;;;22.14;69.47;99885.41;1626276;54;20110;-80
2021/08/15 00:45:47;;;;;;;14.98;9.75;;;;;;;22.15;68.95;99878.09;1625476;54;20042;-79
2021/08/15 00:47:21;;;;;;;12.80;10.07;;;;;;;22.16;68.91;99886.00;1626055;54;20033;-80
2021/08/15 00:48:55;;;;;;;11.25;9.15;;;;;;;22.15;68.74;99883.53;1625585;54;20105;-80
2021/08/15 00:50:28;;;;;;;13.00;9.20;;;;;;;22.16;68.76;99890.59;1625687;54;20023;-80
2021/08/15 00:52:05;;;;;;;12.75;8.70;;;;;;;22.14;68.36;99879.97;1626340;47;20030;-79
2021/08/15 00:53:41;;;;;;;11.60;9.15;;;;;;;22.16;68.31;99882.44;1627344;54;20049;-79
2021/08/15 00:55:14;;;;;;;10.55;8.48;;;;;;;22.13;68.37;99881.00;1631194;54;20022;-79
2021/08/15 00:56:50;;;;;;;16.83;8.70;;;;;;;22.13;68.22;99876.41;1626834;47;20084;-80
2021/08/15 00:58:24;;;;;;;10.57;8.30;;;;;;;22.11;68.04;99883.13;1625727;47;20073;-80
2021/08/15 00:59:59;;;;;;;11.80;8.60;;;;;;;22.12;68.19;99873.91;1625162;47;20034;-80
2021/08/15 01:01:34;;;;;;;12.27;9.13;;;;;;;22.08;68.13;99873.53;1625602;47;20133;-80
2021/08/15 01:03:10;;;;;;;11.15;8.88;;;;;;;22.05;68.02;99870.41;1625984;54;20031;-80
2021/08/15 01:04:44;;;;;;;15.10;8.90;;;;;;;22.02;68.40;99862.69;1626308;47;20031;-79
2021/08/15 01:06:17;;;;;;;12.10;8.60;;;;;;;22.03;68.24;99869.81;1625757;54;20125;-80
2021/08/15 01:07:53;;;;;;;11.80;8.82;;;;;;;22.04;68.17;99863.31;1626849;47;20585;-81
2021/08/15 01:09:27;;;;;;;13.57;8.60;;;;;;;22.02;68.30;99873.59;1625359;54;20161;-79
2021/08/15 01:11:02;;;;;;;10.48;8.25;;;;;;;22.03;68.01;99867.09;1626268;54;20563;-78
2021/08/15 01:12:36;;;;;;;13.05;8.65;;;;;;;22.05;68.05;99862.25;1626373;54;20046;-79
2021/08/15 01:14:12;;;;;;;9.65;7.47;;;;;;;22.06;67.90;99861.19;1625142;47;20405;-78
2021/08/15 01:15:47;;;;;;;12.88;8.23;;;;;;;22.05;67.84;99860.38;1625936;39;20447;-78
2021/08/15 01:17:22;;;;;;;11.98;8.07;;;;;;;22.04;67.76;99860.59;1626283;54;20114;-79
2021/08/15 01:18:56;;;;;;;15.48;7.85;;;;;;;22.00;67.85;99859.38;1625877;54;20058;-80
2021/08/15 01:20:29;;;;;;;11.43;9.25;;;;;;;21.95;68.18;99858.16;1625833;47;20131;-80
2021/08/15 01:22:06;;;;;;;13.48;9.38;;;;;;;21.92;68.13;99855.06;1625498;54;20046;-79
2021/08/15 01:23:44;;;;;;;14.15;9.50;;;;;;;21.85;68.40;99852.41;1625631;47;20114;-80
2021/08/15 01:25:18;;;;;;;13.30;8.82;;;;;;;21.82;68.55;99858.31;1624163;47;20041;-79
2021/08/15 01:26:53;;;;;;;12.60;8.95;;;;;;;21.77;68.77;99860.84;1623049;54;20753;-79
2021/08/15 01:28:29;;;;;;;12.73;9.38;;;;;;;21.73;68.99;99862.34;1625286;54;20030;-79
2021/08/15 01:30:03;;;;;;;12.68;9.77;;;;;;;21.69;68.74;99863.84;1624425;54;20069;-79
2021/08/15 01:31:39;;;;;;;11.95;8.57;;;;;;;21.59;69.40;99862.47;1625451;47;20129;-79
2021/08/15 01:33:12;;;;;;;14.20;9.88;;;;;;;;;;1627009;54;20061;-80
2021/08/15 01:34:46;;;;;;;11.73;8.38;;;;;;;21.48;69.90;99857.72;1627234;47;20050;-77
2021/08/15 01:36:21;;;;;;;12.23;9.30;;;;;;;21.47;69.88;99851.47;1626687;47;20061;-79
2021/08/15 01:37:56;;;;;;;11.52;8.32;;;;;;;21.49;69.75;99856.66;1627629;54;20584;-79
2021/08/15 01:39:30;;;;;;;11.30;8.85;;;;;;;21.49;69.63;99854.75;1626729;51;20031;-80
2021/08/15 01:41:04;;;;;;;12.05;9.15;;;;;;;21.44;69.76;99857.31;1626917;47;20081;-80
2021/08/15 01:42:38;;;;;;;15.32;9.52;;;;;;;21.46;69.78;99859.81;1626877;54;20086;-79
2021/08/15 01:44:14;;;;;;;14.15;9.20;;;;;;;21.43;70.13;99861.09;1626699;47;20045;-79
2021/08/15 01:45:48;;;;;;;11.90;8.45;;;;;;;21.40;70.31;99861.53;1626658;47;20086;-79
2021/08/15 01:47:22;;;;;;;13.07;9.98;;;;;;;21.36;70.28;99857.59;1627156;54;20061;-79
2021/08/15 01:48:56;;;;;;;12.18;9.55;;;;;;;21.33;70.30;99866.19;1627671;54;20095;-77
2021/08/15 01:50:30;;;;;;;16.40;10.80;;;;;;;21.25;70.81;99859.16;1628556;47;20038;-78
2021/08/15 01:52:03;;;;;;;14.57;11.00;;;;;;;21.13;70.96;99856.28;1629124;54;20043;-79
2021/08/15 01:53:37;;;;;;;11.95;9.88;;;;;;;21.05;71.37;99859.25;1628793;47;20050;-77
2021/08/15 01:55:12;;;;;;;10.25;8.27;;;;;;;21.02;71.53;99860.53;1628878;54;20037;-78
2021/08/15 01:56:46;;;;;;;12.20;9.25;;;;;;;21.03;71.61;99862.22;1628536;54;20098;-79
2021/08/15 01:58:20;;;;;;;18.52;10.00;;;;;;;21.08;71.64;99863.41;1629127;54;20098;-80
2021/08/15 01:59:56;;;;;;;11.30;8.88;;;;;;;21.10;71.22;99855.88;1627938;47;20061;-78
2021/08/15 02:01:29;;;;;;;11.68;9.13;;;;;;;21.12;71.21;99865.47;1628154;47;20049;-78
2021/08/15 02:03:03;;;;;;;12.13;8.45;;;;;;;21.11;71.13;99861.09;1627520;54;20042;-80
2021/08/15 02:04:37;;;;;;;13.88;9.45;;;;;;;21.12;71.05;99859.22;1627746;54;20050;-79
2021/08/15 02:06:10;;;;;;;11.77;8.85;;;;;;;21.13;71.16;99860.91;1627408;47;20137;-79
2021/08/15 02:07:44;;;;;;;11.18;8.75;;;;;;;21.11;70.93;99854.84;1628140;47;20145;-79
2021/08/15 02:09:19;;;;;;;12.15;9.50;;;;;;;21.12;71.15;99860.03;1627402;47;20093;-78
2021/08/15 02:10:53;;;;;;;11.00;7.88;;;;;;;21.10;71.03;99866.75;1627566;47;20162;-80
2021/08/15 02:12:24;;;;;;;11.68;8.95;;;;;;;21.06;71.32;99876.41;1628248;54;20031;-78
2021/08/15 02:13:58;;;;;;;11.05;8.32;;;;;;;21.02;71.31;99865.97;1627644;54;20043;-78
2021/08/15 02:15:35;;;;;;;14.05;10.20;;;;;;;20.99;71.26;99866.41;1627804;47;20045;-80
2021/08/15 02:17:08;;;;;;;13.13;10.43;;;;;;;20.86;71.51;99861.06;1628027;54;20047;-79
2021/08/15 02:18:42;;;;;;;13.23;8.88;;;;;;;20.81;71.82;99866.28;1628472;47;20067;-78
2021/08/15 02:20:18;;;;;;;13.40;9.95;;;;;;;20.80;71.77;99867.34;1627651;47;20039;-79
2021/08/15 02:21:51;;;;;;;14.13;9.52;;;;;;;20.72;71.71;99861.09;1628281;54;20038;-78
2021/08/15 02:23:25;;;;;;;12.63;9.60;;;;;;;20.64;71.91;99857.78;1627478;47;20106;-78
2021/08/15 02:24:59;;;;;;;15.02;9.50;;;;;;;20.60;72.14;99856.53;1628800;47;20030;-78
2021/08/15 02:29:39;;;;;;;14.40;9.02;;;;;;;20.61;72.04;99861.75;1624798;39;20460;-79
2021/08/15 02:34:11;;;;;;;;;;;;;;;;;;;;;
2021/08/15 02:53:04;;;;;;;14.45;9.50;;;;;;;20.28;73.23;99854.56;1623697;54;20036;-78
2021/08/15 02:54:40;;;;;;;14.85;9.30;;;;;;;20.24;73.30;99864.19;1624127;54;20041;-78
2021/08/15 02:56:13;;;;;;;14.30;10.02;;;;;;;20.20;73.91;99857.53;1625080;47;20027;-78
2021/08/15 02:57:47;;;;;;;13.38;10.52;;;;;;;20.17;73.87;99857.94;1624854;46;20595;-78
2021/08/15 02:59:20;;;;;;;13.05;8.93;;;;;;;20.17;73.86;99858.75;1624775;47;20138;-77
2021/08/15 03:00:54;;;;;;;13.55;9.43;;;;;;;20.21;73.74;99859.19;1623822;47;20591;-78
2021/08/15 03:02:32;;;;;;;13.05;9.15;;;;;;;20.25;73.61;99852.28;1623888;47;20035;-78
2021/08/15 03:04:06;;;;;;;13.27;9.13;;;;;;;20.27;73.28;99847.47;1623905;47;20038;-78
2021/08/15 03:05:40;;;;;;;13.70;10.15;;;;;;;20.30;73.20;99851.63;1624602;54;20628;-78
2021/08/15 03:13:11;;;;;;;11.18;8.40;;;;;;;20.26;73.43;99843.91;1624505;47;20117;-78
2021/08/15 03:23:54;;;;;;;15.02;9.55;;;;;;;20.10;73.82;99853.38;1624902;47;20037;-78
2021/08/15 03:26:01;;;;;;;11.73;8.75;;;;;;;20.06;73.66;99857.53;1624977;54;20039;-78
2021/08/15 03:27:34;;;;;;;9.73;7.35;;;;;;;20.05;73.59;99855.88;1624417;47;20150;-77
2021/08/15 03:29:08;;;;;;;10.20;8.18;;;;;;;20.05;73.91;99847.72;1625814;47;20035;-79
2021/08/15 03:30:44;;;;;;;11.82;8.77;;;;;;;20.09;73.82;99850.84;1624595;47;20030;-79
2021/08/15 03:32:18;;;;;;;10.85;8.95;;;;;;;20.07;73.63;99851.06;1624815;47;20037;-79
2021/08/15 03:33:53;;;;;;;10.95;8.07;;;;;;;20.05;73.78;99849.63;1624368;39;20533;-79
2021/08/15 03:35:27;;;;;;;11.38;8.05;;;;;;;20.02;73.89;99844.63;1624864;47;20034;-79
2021/08/15 03:37:01;;;;;;;12.05;8.48;;;;;;;20.00;73.65;99849.41;1623617;47;20046;-79
2021/08/15 03:38:34;;;;;;;10.85;8.20;;;;;;;20.01;73.88;99840.22;1624349;47;20038;-79
2021/08/15 03:40:09;;;;;;;11.35;7.57;;;;;;;20.02;73.68;99839.19;1624625;47;20625;-79
2021/08/15 03:41:43;;;;;;;11.20;7.97;;;;;;;20.04;73.67;99842.53;1624574;54;20126;-79
2021/08/15 03:43:17;;;;;;;13.23;8.18;;;;;;;20.03;73.54;99841.69;1624314;47;20031;-79
2021/08/15 03:44:50;;;;;;;10.13;8.32;;;;;;;20.00;73.69;99836.69;1625648;39;20463;-78
2021/08/15 03:46:27;;;;;;;10.75;8.18;;;;;;;19.96;74.20;99832.72;1625703;54;20064;-79
2021/08/15 03:48:01;;;;;;;17.30;9.10;;;;;;;19.96;73.95;99827.31;1625653;47;20030;-79
2021/08/15 03:49:34;;;;;;;11.18;8.40;;;;;;;19.95;74.39;99833.78;1624532;47;20437;-79
2021/08/15 03:51:08;;;;;;;11.63;8.25;;;;;;;19.96;74.15;99827.31;1624280;46;20735;-79
2021/08/15 03:52:42;;;;;;;12.55;8.00;;;;;;;19.99;73.71;99835.03;1624528;47;20022;-78
2021/08/15 03:54:19;;;;;;;10.98;8.15;;;;;;;20.00;73.88;99836.69;1622553;54;20101;-78
2021/08/15 03:55:53;;;;;;;10.50;7.32;;;;;;;20.04;73.69;99837.09;1624439;39;20465;-79
2021/08/15 03:57:27;;;;;;;10.25;8.25;;;;;;;20.05;73.66;99834.16;1624176;54;20034;-79
2021/08/15 03:59:00;;;;;;;10.75;8.48;;;;;;;19.98;73.76;99836.06;1624362;54;20034;-79
2021/08/15 04:00:39;;;;;;;11.82;8.45;;;;;;;19.95;73.90;99826.47;1623166;47;20609;-78
2021/08/15 04:02:16;;;;;;;12.38;7.78;;;;;;;19.92;73.86;99823.38;1624238;54;20054;-79
2021/08/15 04:03:49;;;;;;;9.98;7.70;;;;;;;19.91;74.19;99827.13;1623518;54;20141;-79
2021/08/15 04:05:23;;;;;;;9.88;7.90;;;;;;;19.92;73.86;99826.91;1624260;47;20038;-78
2021/08/15 04:06:58;;;;;;;12.10;7.40;;;;;;;19.92;73.90;99829.63;1624919;54;20035;-79
2021/08/15 04:08:32;;;;;;;11.95;8.07;;;;;;;19.93;73.98;99828.56;1625582;47;20034;-79
2021/08/15 04:10:09;;;;;;;13.40;8.05;;;;;;;19.95;74.08;99829.19;1625692;54;20042;-78
2021/08/15 04:11:43;;;;;;;12.77;7.80;;;;;;;19.95;74.00;99837.34;1626568;54;20082;-79
2021/08/15 04:13:17;;;;;;;10.20;7.55;;;;;;;19.96;73.74;99838.16;1626666;54;20042;-79
2021/08/15 04:14:52;;;;;;;10.85;7.65;;;;;;;19.97;73.83;99826.25;1625653;47;20040;-79
2021/08/15 04:16:26;;;;;;;10.95;7.60;;;;;;;19.98;73.80;99836.06;1625664;54;20073;-79
2021/08/15 04:18:02;;;;;;;11.77;7.80;;;;;;;19.97;73.99;99830.88;1626181;54;20039;-79
2021/08/15 04:19:36;;;;;;;12.38;7.80;;;;;;;19.95;73.70;99840.06;1626501;54;20039;-79
2021/08/15 04:21:10;;;;;;;8.90;7.10;;;;;;;19.94;73.91;99832.94;1626668;47;20126;-79
2021/08/15 04:22:45;;;;;;;10.27;7.63;;;;;;;19.95;74.07;99834.63;1625582;54;20122;-79
2021/08/15 04:24:20;;;;;;;10.23;8.02;;;;;;;19.96;73.62;99846.28;1626213;47;20028;-79
2021/08/15 04:25:54;;;;;;;14.95;8.63;;;;;;;19.96;73.89;99835.44;1626593;39;20517;-79
2021/08/15 04:27:27;;;;;;;13.05;8.95;;;;;;;19.96;73.99;99835.44;1625227;47;20040;-80
2021/08/15 04:29:01;;;;;;;10.75;8.60;;;;;;;19.93;73.94;99841.31;1625812;47;20053;-79
2021/08/15 04:30:35;;;;;;;12.98;7.97;;;;;;;19.91;73.95;99837.97;1625846;47;20151;-79
2021/08/15 04:32:09;;;;;;;11.38;7.93;;;;;;;19.91;74.20;99832.53;1626439;47;20042;-79
2021/08/15 04:33:46;;;;;;;14.35;8.98;;;;;;;19.92;74.00;99835.03;1625110;47;20041;-79
2021/08/15 04:35:19;;;;;;;13.00;9.45;;;;;;;19.94;74.04;99832.09;1626072;54;20126;-80
2021/08/15 04:36:53;;;;;;;11.30;8.57;;;;;;;19.95;73.90;99845.47;1625470;47;20036;-79
2021/08/15 04:38:25;;;;;;;12.25;8.18;;;;;;;19.98;73.85;99833.34;1625243;54;20641;-79
2021/08/15 04:39:59;;;;;;;13.57;8.25;;;;;;;20.00;74.15;99835.84;1626162;47;20066;-79
2021/08/15 04:41:33;;;;;;;12.32;8.80;;;;;;;19.94;74.28;99838.38;1626517;54;20038;-80
2021/08/15 04:43:06;;;;;;;12.23;8.90;;;;;;;19.91;74.21;99837.97;1624899;54;20034;-79
2021/08/15 04:44:41;;;;;;;13.48;9.45;;;;;;;19.87;74.50;99834.00;1625998;54;20030;-79
2021/08/15 04:46:15;;;;;;;12.07;8.43;;;;;;;19.83;74.67;99835.44;1626324;39;20455;-79
2021/08/15 04:47:48;;;;;;;13.48;8.90;;;;;;;19.83;74.81;99835.44;1626152;54;20109;-79
2021/08/15 04:49:25;;;;;;;16.50;10.27;;;;;;;19.80;74.61;99837.53;1625949;47;20150;-79
2021/08/15 04:50:58;;;;;;;10.30;8.85;;;;;;;19.79;74.62;99837.72;1626152;54;20054;-79
2021/08/15 04:52:33;;;;;;;13.25;8.57;;;;;;;19.80;74.90;99825.84;1626214;31;20525;-79
2021/08/15 04:54:06;;;;;;;9.98;8.18;;;;;;;19.80;74.50;99837.53;1624772;54;20034;-79
2021/08/15 04:55:40;;;;;;;11.98;9.73;;;;;;;19.81;74.76;99827.50;1625601;39;20466;-79
2021/08/15 04:57:16;;;;;;;12.73;8.95;;;;;;;19.84;74.52;99837.13;1626023;54;20130;-79
2021/08/15 04:58:50;;;;;;;12.90;9.35;;;;;;;19.83;74.54;99836.28;1625340;54;20066;-78
2021/08/15 05:00:23;;;;;;;11.63;7.60;;;;;;;19.82;74.27;99833.78;1626007;47;20041;-78
2021/08/15 05:01:58;;;;;;;10.02;7.88;;;;;;;19.85;74.00;99838.75;1626786;54;20035;-79
2021/08/15 05:03:32;;;;;;;9.60;7.85;;;;;;;19.87;74.13;99842.13;1626608;54;20039;-79
2021/08/15 05:05:14;;;;;;;15.00;9.05;;;;;;;19.91;74.03;99846.94;1626673;47;20049;-79
2021/08/15 05:06:48;;;;;;;12.43;8.93;;;;;;;19.91;73.94;99846.94;1626601;54;20074;-78
2021/08/15 05:08:22;;;;;;;11.68;9.30;;;;;;;19.91;73.62;99843.41;1626567;54;20923;-78
2021/08/15 05:09:56;;;;;;;10.07;8.45;;;;;;;19.89;73.73;99856.31;1626605;54;20041;-78
2021/08/15 05:11:31;;;;;;;11.27;8.20;;;;;;;19.89;73.91;99859.03;1626030;47;20060;-79
2021/08/15 05:13:06;;;;;;;10.98;8.02;;;;;;;19.88;73.83;99860.09;1627337;31;20525;-78
2021/08/15 05:14:40;;;;;;;15.25;8.70;;;;;;;19.89;73.73;99867.19;1626233;54;20145;-79
2021/08/15 05:16:14;;;;;;;11.75;8.32;;;;;;;19.88;73.45;99855.50;1626433;54;20031;-79
2021/08/15 05:17:49;;;;;;;11.02;7.53;;;;;;;19.87;73.57;99853.84;1626410;54;20129;-79
2021/08/15 05:19:23;;;;;;;10.13;7.63;;;;;;;19.87;73.73;99859.25;1626410;54;20062;-79
2021/08/15 05:20:59;;;;;;;12.02;8.35;;;;;;;19.89;73.26;99853.63;1625278;54;20035;-79
2021/08/15 05:22:33;;;;;;;11.00;8.20;;;;;;;19.94;73.33;99859.22;1626019;47;20150;-78
2021/08/15 05:24:08;;;;;;;9.48;7.65;;;;;;;19.94;73.39;99859.22;1626334;47;20580;-78
2021/08/15 05:25:43;;;;;;;11.18;8.90;;;;;;;19.96;73.24;99857.16;1627268;54;20066;-79
2021/08/15 05:27:17;;;;;;;11.15;8.07;;;;;;;19.97;73.18;99853.38;1626113;54;20038;-79
2021/08/15 05:28:51;;;;;;;12.43;8.77;;;;;;;20.01;72.81;99860.06;1626770;54;20599;-79
2021/08/15 05:30:25;;;;;;;11.43;7.95;;;;;;;20.05;72.86;99855.88;1627253;54;20056;-79
2021/08/15 05:32:00;;;;;;;11.32;8.48;;;;;;;20.09;72.82;99846.28;1627344;54;20038;-78
2021/08/15 05:33:33;;;;;;;10.32;7.22;;;;;;;20.13;72.76;99859.41;1627776;39;20775;-79
2021/08/15 05:35:08;;;;;;;14.60;9.30;;;;;;;20.15;72.44;99852.75;1625817;54;20034;-79
2021/08/15 05:36:44;;;;;;;10.20;8.82;;;;;;;20.14;72.73;99852.94;1625822;47;20561;-79
2021/08/15 05:38:18;;;;;;;11.60;7.80;;;;;;;20.14;72.71;99858.34;1626111;47;20060;-79
2021/08/15 05:39:52;;;;;;;10.70;8.00;;;;;;;20.17;72.62;99855.22;1627064;54;20031;-79
2021/08/15 05:41:25;;;;;;;10.32;7.97;;;;;;;20.19;72.35;99840.41;1627123;54;20031;-78
2021/08/15 05:42:59;;;;;;;10.20;8.15;;;;;;;20.25;72.16;99845.00;1624426;47;20578;-79
2021/08/15 05:44:33;;;;;;;13.88;8.27;;;;;;;20.21;72.34;99840.19;1624479;47;20038;-78
2021/08/15 05:46:06;;;;;;;11.15;8.07;;;;;;;20.18;72.52;99843.34;1624978;54;20030;-80
2021/08/15 05:47:40;;;;;;;9.15;6.85;;;;;;;20.20;72.56;99836.63;1624810;54;20050;-79
2021/08/15 05:49:14;;;;;;;9.95;7.10;;;;;;;20.26;72.22;99843.91;1626659;54;20640;-79
2021/08/15 05:50:47;;;;;;;9.40;7.38;;;;;;;20.31;72.29;99843.28;1626061;39;20121;-79
2021/08/15 05:52:24;;;;;;;11.63;8.32;;;;;;;20.34;72.28;99848.28;1625955;54;20034;-79
2021/08/15 05:53:58;;;;;;;8.63;7.28;;;;;;;20.36;72.03;99838.06;1625656;46;20057;-79
2021/08/15 05:55:32;;;;;;;11.30;8.40;;;;;;;20.43;72.19;99846.19;1625442;54;20050;-80
2021/08/15 05:57:05;;;;;;;11.85;7.72;;;;;;;20.48;71.92;99850.97;1626536;39;20416;-80
2021/08/15 05:58:39;;;;;;;9.75;7.40;;;;;;;20.53;71.64;99846.56;1625931;54;20053;-79
2021/08/15 06:00:14;;;;;;;10.02;7.95;;;;;;;20.57;71.74;99846.97;1625610;54;20041;-79
2021/08/15 06:01:48;;;;;;;12.55;8.65;;;;;;;20.58;71.71;99846.72;1626170;54;20030;-79
2021/08/15 06:03:21;;;;;;;24.38;9.30;;;;;;;20.57;71.50;99846.97;1626520;54;20053;-79
2021/08/15 06:04:55;;;;;;;9.65;8.45;;;;;;;20.51;71.87;99845.94;1626418;54;20035;-79
2021/08/15 06:06:29;;;;;;;11.32;8.23;;;;;;;20.55;71.66;99844.44;1626635;47;20147;-79
2021/08/15 06:08:05;;;;;;;12.18;8.82;;;;;;;20.62;71.71;99838.16;1626433;54;20133;-78
2021/08/15 06:09:39;;;;;;;10.95;8.43;;;;;;;20.67;71.42;99841.91;1625763;54;20090;-79
2021/08/15 06:11:13;;;;;;;17.45;9.23;;;;;;;20.70;71.34;99841.44;1626257;54;20037;-79
2021/08/15 06:12:46;;;;;;;12.80;8.95;;;;;;;20.67;71.15;99844.63;1626175;47;20608;-78
2021/08/15 06:14:20;;;;;;;12.57;8.23;;;;;;;20.65;71.60;99844.00;1626032;47;20121;-78
2021/08/15 06:15:54;;;;;;;9.45;7.93;;;;;;;20.68;71.22;99842.72;1626201;54;20037;-79
2021/08/15 06:17:27;;;;;;;12.73;9.38;;;;;;;20.71;71.20;99839.59;1625782;54;20030;-79
2021/08/15 06:19:01;;;;;;;10.73;9.00;;;;;;;20.68;71.43;99846.28;1625132;54;20038;-78
2021/08/15 06:20:35;;;;;;;15.50;9.40;;;;;;;20.69;71.21;99837.06;1625871;54;20610;-79
2021/08/15 06:22:09;;;;;;;13.88;9.57;;;;;;;20.72;71.40;99836.63;1625318;47;20033;-79
2021/08/15 06:23:46;;;;;;;14.45;9.50;;;;;;;20.77;71.37;99830.59;1625385;54;20182;-79
2021/08/15 06:25:20;;;;;;;12.55;8.80;;;;;;;20.82;71.04;99833.50;1625047;47;20150;-78
2021/08/15 06:26:54;;;;;;;12.70;9.57;;;;;;;20.86;70.74;99823.03;1625124;54;20246;-79
2021/08/15 06:28:28;;;;;;;13.02;8.93;;;;;;;20.90;70.87;99824.25;1625633;54;20038;-79
2021/08/15 06:30:01;;;;;;;10.70;8.60;;;;;;;20.94;70.83;99820.06;1626147;54;20042;-80
2021/08/15 06:31:35;;;;;;;10.25;8.63;;;;;;;20.99;70.48;99822.94;1626239;54;20059;-79
2021/08/15 06:33:09;;;;;;;12.90;8.68;;;;;;;21.06;70.23;99832.94;1625622;47;20062;-78
2021/08/15 06:34:42;;;;;;;15.50;8.15;;;;;;;21.11;70.23;99820.34;1625807;54;20498;-78
2021/08/15 06:36:16;;;;;;;14.05;9.10;;;;;;;21.17;70.06;99818.63;1625818;54;20034;-78
2021/08/15 06:37:52;;;;;;;11.45;8.68;;;;;;;21.20;69.81;99815.47;1626381;47;20042;-78
2021/08/15 06:39:28;;;;;;;10.32;8.65;;;;;;;21.25;69.73;99814.81;1626874;54;20034;-80
2021/08/15 06:41:02;;;;;;;15.05;10.77;;;;;;;21.28;69.34;99822.53;1625910;54;20126;-80
2021/08/15 06:42:36;;;;;;;14.18;10.27;;;;;;;21.23;69.45;99831.34;1626118;54;20029;-80
2021/08/15 06:44:10;;;;;;;12.05;9.98;;;;;;;21.22;69.30;99826.97;1626576;54;20054;-80
2021/08/15 06:45:47;;;;;;;12.95;10.05;;;;;;;21.27;69.06;99824.41;1624138;54;20545;-81
2021/08/15 06:47:22;;;;;;;14.77;9.50;;;;;;;21.28;68.83;99820.63;1625383;47;20158;-78
2021/08/15 06:48:59;;;;;;;17.10;9.55;;;;;;;21.35;68.81;99821.41;1626025;54;20150;-80
2021/08/15 06:50:33;;;;;;;13.20;8.60;;;;;;;21.42;68.50;99825.97;1624920;47;20039;-79
2021/08/15 06:52:07;;;;;;;11.80;8.80;;;;;;;21.55;68.27;99822.31;1626190;47;20046;-80
2021/08/15 06:53:41;;;;;;;10.95;8.63;;;;;;;21.63;67.87;99822.88;1626132;54;20085;-78
2021/08/15 06:55:17;;;;;;;10.32;8.60;;;;;;;21.75;67.44;99814.00;1626085;54;20038;-79
2021/08/15 06:56:51;;;;;;;12.13;8.40;;;;;;;21.85;67.25;99814.31;1624142;54;20106;-79
2021/08/15 06:58:24;;;;;;;11.93;8.85;;;;;;;21.93;66.87;99813.19;1626057;54;20165;-78
2021/08/15 06:59:58;;;;;;;9.48;7.70;;;;;;;22.02;66.68;99813.72;1625222;47;20157;-79
2021/08/15 07:01:32;;;;;;;10.55;8.57;;;;;;;22.08;66.23;99812.81;1626180;54;20051;-80
2021/08/15 07:03:06;;;;;;;9.32;7.63;;;;;;;22.16;65.88;99807.06;1626321;47;20624;-79
2021/08/15 07:04:40;;;;;;;11.95;7.90;;;;;;;22.24;65.79;99805.94;1625393;46;20038;-79
2021/08/15 07:06:16;;;;;;;12.68;9.05;;;;;;;22.28;66.03;99808.00;1624493;47;20135;-79
2021/08/15 07:07:50;;;;;;;9.20;7.80;;;;;;;22.24;65.94;99798.59;1624582;54;20086;-79
2021/08/15 07:09:23;;;;;;;10.77;8.07;;;;;;;22.25;66.01;99802.13;1625063;54;20120;-79
2021/08/15 07:10:59;;;;;;;11.65;7.45;;;;;;;22.35;65.75;99801.63;1625044;54;20034;-79
2021/08/15 07:12:33;;;;;;;11.43;8.18;;;;;;;22.47;65.24;99801.69;1624797;54;20045;-79
2021/08/15 07:14:07;;;;;;;9.57;7.38;;;;;;;22.58;65.38;99800.94;1624954;54;20062;-79
2021/08/15 07:15:41;;;;;;;11.02;8.10;;;;;;;22.66;65.00;99792.44;1624838;47;20578;-79
2021/08/15 07:17:16;;;;;;;12.10;8.60;;;;;;;22.76;64.66;99802.78;1625188;54;20115;-79
2021/08/15 07:18:51;;;;;;;9.77;8.50;;;;;;;22.85;64.76;99797.81;1628393;46;20035;-79
2021/08/15 07:20:28;;;;;;;10.43;7.30;;;;;;;22.98;64.34;99794.06;1623788;54;20133;-79
2021/08/15 07:22:02;;;;;;;13.57;7.45;;;;;;;23.13;63.96;99794.47;1624624;54;20034;-80
2021/08/15 07:23:35;;;;;;;11.13;8.25;;;;;;;23.26;63.34;99789.88;1621178;46;20031;-78
2021/08/15 07:25:10;;;;;;;9.52;8.25;;;;;;;23.36;63.04;99796.44;1624308;47;21024;-78
2021/08/15 07:26:47;;;;;;;11.80;7.97;;;;;;;23.41;62.55;99787.56;1622090;47;20045;-79
2021/08/15 07:28:20;;;;;;;12.57;7.95;;;;;;;23.46;62.27;99784.13;1623005;54;20155;-79
2021/08/15 07:29:54;;;;;;;9.57;6.72;;;;;;;23.63;61.59;99789.66;1624476;47;20061;-80
2021/08/15 07:31:27;;;;;;;8.88;6.15;;;;;;;23.83;60.22;99790.16;1628875;47;20032;-77
2021/08/15 07:33:01;;;;;;;11.43;7.53;;;;;;;24.01;59.02;99780.19;1630034;47;20061;-79
2021/08/15 07:34:35;;;;;;;10.10;6.72;;;;;;;24.06;58.57;99771.25;1629655;47;20042;-80
2021/08/15 07:36:08;;;;;;;9.75;6.85;;;;;;;24.17;58.19;99778.59;1624991;54;20126;-79
2021/08/15 07:37:42;;;;;;;9.98;6.45;;;;;;;24.34;57.71;99775.94;1623266;47;20030;-79
2021/08/15 07:39:16;;;;;;;9.68;7.22;;;;;;;24.36;57.35;99782.00;1624758;47;20098;-79
2021/08/15 07:40:50;;;;;;;10.93;7.00;;;;;;;24.39;56.88;99781.50;1622531;47;20053;-79
2021/08/15 07:42:26;;;;;;;12.38;6.90;;;;;;;24.51;56.19;99780.63;1623867;54;20041;-80
2021/08/15 07:44:00;;;;;;;12.50;7.25;;;;;;;24.65;56.52;99782.00;1623768;54;20030;-79
2021/08/15 07:45:35;;;;;;;10.55;6.25;;;;;;;24.87;55.73;99773.13;1624116;54;20036;-79
2021/08/15 07:47:09;;;;;;;9.10;6.70;;;;;;;25.03;55.24;99777.78;1624257;54;20038;-80
2021/08/15 07:48:43;;;;;;;8.82;6.63;;;;;;;25.05;54.69;99772.91;1623728;47;20094;-80
2021/08/15 07:50:21;;;;;;;8.75;6.32;;;;;;;25.06;54.61;99779.22;1623505;47;20042;-79
2021/08/15 07:51:55;;;;;;;10.02;6.75;;;;;;;25.04;54.58;99773.97;1624274;54;20666;-80
2021/08/15 07:53:30;;;;;;;9.23;7.47;;;;;;;25.04;54.78;99771.22;1623979;54;20653;-79
2021/08/15 07:55:04;;;;;;;8.98;6.28;;;;;;;25.11;54.68;99770.25;1622794;47;20039;-80
2021/08/15 07:56:38;;;;;;;8.07;6.13;;;;;;;25.23;53.97;99768.25;1623886;54;20046;-79
2021/08/15 07:58:15;;;;;;;8.38;6.03;;;;;;;25.40;53.83;99762.81;1623591;54;20066;-79